createdAt,value
2023-01-22T00:01:21.408Z,3.47
2023-01-22T00:05:23.607Z,1.10
2023-01-22T00:09:25.846Z,3.80
2023-01-22T00:13:28.694Z,2.20
2023-01-22T00:17:31.127Z,1.37
2023-01-22T00:21:33.294Z,2.20
2023-01-22T00:25:35.446Z,1.47
2023-01-22T00:29:37.583Z,3.00
2023-01-22T00:33:40.367Z,2.27
2023-01-22T00:37:42.534Z,1.97
2023-01-22T00:41:44.719Z,1.77
2023-01-22T00:45:46.891Z,1.80
2023-01-22T00:49:49.037Z,3.10
2023-01-22T00:53:52.960Z,4.90
2023-01-22T00:57:55.123Z,2.17
2023-01-22T01:01:57.309Z,1.90
2023-01-22T01:06:02.991Z,1.97
2023-01-22T01:10:05.392Z,2.33
2023-01-22T01:14:07.735Z,3.23
2023-01-22T01:18:09.885Z,3.83
2023-01-22T01:22:12.204Z,1.97
2023-01-22T01:26:15.622Z,1.50
2023-01-22T01:30:18.203Z,2.47
2023-01-22T01:34:21.397Z,1.40
2023-01-22T01:38:23.573Z,2.17
2023-01-22T01:42:32.220Z,1.80
2023-01-22T01:46:36.525Z,1.77
2023-01-22T01:50:40.662Z,3.13
2023-01-22T01:54:44.259Z,1.57
2023-01-22T01:58:46.790Z,2.10
2023-01-22T02:02:49.406Z,1.40
2023-01-22T02:06:51.546Z,1.43
2023-01-22T02:10:54.198Z,0.90
2023-01-22T02:14:56.418Z,1.60
2023-01-22T02:18:58.608Z,1.63
2023-01-22T02:23:00.765Z,1.73
2023-01-22T02:27:03.063Z,2.37
2023-01-22T02:31:05.303Z,2.30
2023-01-22T02:35:09.367Z,1.60
2023-01-22T02:39:12.469Z,2.60
2023-01-22T02:43:14.660Z,1.47
2023-01-22T02:47:16.842Z,1.43
2023-01-22T02:51:19.078Z,1.83
2023-01-22T02:55:23.344Z,0.90
2023-01-22T02:59:25.928Z,0.97
2023-01-22T03:03:28.086Z,1.20
2023-01-22T03:07:31.680Z,2.33
2023-01-22T03:11:34.681Z,1.00
2023-01-22T03:15:40.312Z,2.10
2023-01-22T03:19:42.582Z,0.70
2023-01-22T03:23:54.270Z,0.90
2023-01-22T03:27:56.512Z,0.80
2023-01-22T03:31:58.772Z,1.13
2023-01-22T03:36:02.235Z,0.60
2023-01-22T03:40:05.871Z,1.40
2023-01-22T03:44:13.225Z,0.87
2023-01-22T03:48:16.164Z,0.83
2023-01-22T03:52:18.439Z,1.27
2023-01-22T03:56:22.290Z,1.17
2023-01-22T04:00:24.966Z,1.37
2023-01-22T04:04:27.758Z,1.03
2023-01-22T04:08:31.416Z,1.07
2023-01-22T04:12:34.418Z,1.20
2023-01-22T04:16:36.870Z,1.20
2023-01-22T04:20:42.108Z,1.27
2023-01-22T04:24:55.546Z,2.60
2023-01-22T04:28:57.855Z,1.80
2023-01-22T04:33:00.605Z,1.50
2023-01-22T04:37:11.506Z,1.37
2023-01-22T04:41:13.954Z,2.20
2023-01-22T04:45:16.320Z,1.87
2023-01-22T04:49:18.536Z,2.03
2023-01-22T04:53:22.099Z,1.30
2023-01-22T04:57:24.433Z,1.73
2023-01-22T05:01:26.865Z,1.93
2023-01-22T05:05:29.526Z,1.73
2023-01-22T05:09:32.929Z,3.07
2023-01-22T05:13:36.236Z,1.93
2023-01-22T05:17:39.301Z,1.60
2023-01-22T05:21:41.538Z,2.03
2023-01-22T05:25:47.972Z,3.17
2023-01-22T05:29:50.907Z,3.43
2023-01-22T05:34:08.285Z,2.30
2023-01-22T05:38:10.878Z,2.93
2023-01-22T05:42:14.944Z,2.40
2023-01-22T05:46:19.009Z,2.10
2023-01-22T05:50:38.107Z,3.80
2023-01-22T05:54:44.753Z,2.93
2023-01-22T05:58:46.962Z,2.47
2023-01-22T06:02:49.586Z,2.87
2023-01-22T06:06:51.915Z,3.00
2023-01-22T06:11:00.165Z,3.50
2023-01-22T06:15:03.811Z,3.77
2023-01-22T06:19:06.064Z,3.47
2023-01-22T06:23:21.317Z,2.60
2023-01-22T06:27:23.644Z,2.43
2023-01-22T06:31:33.407Z,2.33
2023-01-22T06:35:35.574Z,2.87
2023-01-22T06:39:37.818Z,3.97
2023-01-22T06:43:47.326Z,2.03
2023-01-22T06:47:49.624Z,2.93
2023-01-22T06:51:52.651Z,2.87
2023-01-22T06:55:55.012Z,3.00
2023-01-22T06:59:57.412Z,2.37
2023-01-22T07:03:59.609Z,2.93
2023-01-22T07:08:01.964Z,3.13
2023-01-22T07:12:04.269Z,3.57
2023-01-22T07:16:06.705Z,2.67
2023-01-22T07:20:09.262Z,4.10
2023-01-22T07:24:11.690Z,3.30
2023-01-22T07:28:15.370Z,3.33
2023-01-22T07:32:17.509Z,4.03
2023-01-22T07:36:19.655Z,2.97
2023-01-22T07:40:22.099Z,2.70
2023-01-22T07:44:24.261Z,2.97
2023-01-22T07:48:26.788Z,3.80
2023-01-22T07:52:28.913Z,1.97
2023-01-22T07:56:31.077Z,2.90
2023-01-22T08:00:34.359Z,3.47
2023-01-22T08:04:36.541Z,3.47
2023-01-22T08:08:39.418Z,8.87
2023-01-22T08:12:42.010Z,30.63
2023-01-22T08:16:44.229Z,3.67
2023-01-22T08:20:46.437Z,8.57
2023-01-22T08:24:48.971Z,5.50
2023-01-22T08:28:51.130Z,3.83
2023-01-22T08:32:53.295Z,4.27
2023-01-22T08:36:56.016Z,2.67
2023-01-22T08:40:58.176Z,4.23
2023-01-22T08:45:00.370Z,3.00
2023-01-22T08:49:04.033Z,4.27
2023-01-22T08:53:06.243Z,2.37
2023-01-22T08:57:09.673Z,3.47
2023-01-22T09:01:15.565Z,3.53
2023-01-22T09:05:17.782Z,4.13
2023-01-22T09:09:19.970Z,4.37
2023-01-22T09:13:22.151Z,2.90
2023-01-22T09:17:24.258Z,5.23
2023-01-22T09:21:26.567Z,2.67
2023-01-22T09:25:28.729Z,3.03
2023-01-22T09:29:30.959Z,3.50
2023-01-22T09:33:33.145Z,2.77
2023-01-22T09:37:35.383Z,2.73
2023-01-22T09:41:41.871Z,2.90
2023-01-22T09:45:44.751Z,4.07
2023-01-22T09:49:59.262Z,4.40
2023-01-22T09:54:02.660Z,4.17
2023-01-22T09:58:05.614Z,2.63
2023-01-22T10:02:26.471Z,2.47
2023-01-22T10:06:28.711Z,3.50
2023-01-22T10:10:31.250Z,5.73
2023-01-22T10:14:33.420Z,5.40
2023-01-22T10:18:40.420Z,4.03
2023-01-22T10:22:42.562Z,4.17
2023-01-22T10:26:52.051Z,3.87
2023-01-22T10:30:54.271Z,6.27
2023-01-22T10:34:59.558Z,3.87
2023-01-22T10:39:13.144Z,4.13
2023-01-22T10:43:16.474Z,6.63
2023-01-22T10:47:20.202Z,6.83
2023-01-22T10:51:24.698Z,3.70
2023-01-22T10:55:31.658Z,4.17
2023-01-22T10:59:34.248Z,4.77
2023-01-22T11:03:37.801Z,6.07
2023-01-22T11:07:40.074Z,3.70
2023-01-22T11:11:45.731Z,3.43
2023-01-22T11:16:06.540Z,4.23
2023-01-22T11:20:22.771Z,4.80
2023-01-22T11:24:37.580Z,4.83
2023-01-22T11:28:49.317Z,3.97
2023-01-22T11:33:10.377Z,6.93
2023-01-22T11:37:14.106Z,4.20
2023-01-22T11:41:19.275Z,4.97
2023-01-22T11:45:21.382Z,3.83
2023-01-22T11:49:26.580Z,4.23
2023-01-22T11:53:40.707Z,5.40
2023-01-22T11:57:43.840Z,4.20
2023-01-22T12:01:48.865Z,3.93
2023-01-22T12:06:00.050Z,5.23
2023-01-22T12:10:22.488Z,4.00
2023-01-22T12:14:31.307Z,7.13
2023-01-22T12:18:36.566Z,11.90
2023-01-22T12:22:44.719Z,12.30
2023-01-22T12:26:57.207Z,13.40
2023-01-22T12:31:11.764Z,10.77
2023-01-22T12:35:17.032Z,4.87
2023-01-22T12:39:21.963Z,11.00
2023-01-22T12:43:30.951Z,7.37
2023-01-22T12:47:39.415Z,5.77
2023-01-22T12:51:45.994Z,6.40
2023-01-22T12:55:58.356Z,6.47
2023-01-22T13:00:10.675Z,7.27
2023-01-22T13:04:13.193Z,5.27
2023-01-22T13:08:18.435Z,5.67
2023-01-22T13:12:27.636Z,6.57
2023-01-22T13:16:34.158Z,5.77
2023-01-22T13:20:38.288Z,6.43
2023-01-22T13:24:48.753Z,5.70
2023-01-22T13:28:53.946Z,5.40
2023-01-22T13:33:06.561Z,6.13
2023-01-22T13:37:20.698Z,6.47
2023-01-22T13:41:27.080Z,6.87
2023-01-22T13:45:30.724Z,5.67
2023-01-22T13:49:33.855Z,5.83
2023-01-22T13:53:41.439Z,6.77
2023-01-22T13:57:46.951Z,6.97
2023-01-22T14:01:49.597Z,7.03
2023-01-22T14:06:02.166Z,8.50
2023-01-22T14:10:16.463Z,6.50
2023-01-22T14:14:20.071Z,7.43
2023-01-22T14:18:22.265Z,7.03
2023-01-22T14:22:24.927Z,6.83
2023-01-22T14:26:27.108Z,8.90
2023-01-22T14:30:29.315Z,7.90
2023-01-22T14:34:31.454Z,7.03
2023-01-22T14:38:33.590Z,8.27
2023-01-22T14:42:35.739Z,10.80
2023-01-22T14:46:37.882Z,8.30
2023-01-22T14:50:40.653Z,6.83
2023-01-22T14:54:43.157Z,7.63
2023-01-22T14:58:45.325Z,6.43
2023-01-22T15:02:47.448Z,7.53
2023-01-22T15:06:49.623Z,7.23
2023-01-22T15:10:51.759Z,6.93
2023-01-22T15:14:53.921Z,9.03
2023-01-22T15:18:56.152Z,10.70
2023-01-22T15:22:58.380Z,9.17
2023-01-22T15:27:00.597Z,8.37
2023-01-22T15:31:03.485Z,10.13
2023-01-22T15:35:05.860Z,10.13
2023-01-22T15:39:08.093Z,8.10
2023-01-22T15:43:10.288Z,6.97
2023-01-22T15:47:12.470Z,11.60
2023-01-22T15:51:15.140Z,8.87
2023-01-22T15:55:17.334Z,9.47
2023-01-22T15:59:19.599Z,10.77
2023-01-22T16:03:21.752Z,7.27
2023-01-22T16:07:23.909Z,11.07
2023-01-22T16:11:29.819Z,9.83
2023-01-22T16:15:32.005Z,10.93
2023-01-22T16:19:34.154Z,8.77
2023-01-22T16:23:37.405Z,10.97
2023-01-22T16:27:39.781Z,11.23
2023-01-22T16:31:42.034Z,6.37
2023-01-22T16:35:44.326Z,7.03
2023-01-22T16:39:46.482Z,8.40
2023-01-22T16:43:53.600Z,7.53
2023-01-22T16:47:55.884Z,8.47
2023-01-22T16:52:13.056Z,6.90
2023-01-22T16:56:19.245Z,8.23
2023-01-22T17:00:21.479Z,10.47
2023-01-22T17:04:23.835Z,9.10
2023-01-22T17:08:26.559Z,8.40
2023-01-22T17:12:28.729Z,8.13
2023-01-22T17:16:30.930Z,6.70
2023-01-22T17:20:33.132Z,6.33
2023-01-22T17:24:35.272Z,7.03
2023-01-22T17:28:37.820Z,7.83
2023-01-22T17:32:39.963Z,6.07
2023-01-22T17:36:42.421Z,7.23
2023-01-22T17:40:44.623Z,6.97
2023-01-22T17:44:46.728Z,7.77
2023-01-22T17:48:49.467Z,7.07
2023-01-22T17:52:51.626Z,6.50
2023-01-22T17:56:53.763Z,6.83
2023-01-22T18:01:01.358Z,7.17
2023-01-22T18:05:03.779Z,6.97
2023-01-22T18:09:06.473Z,6.87
2023-01-22T18:13:08.640Z,9.43
2023-01-22T18:17:11.091Z,11.37
2023-01-22T18:21:14.996Z,6.83
2023-01-22T18:25:17.375Z,8.17
2023-01-22T18:29:19.646Z,6.03
2023-01-22T18:33:22.029Z,8.30
2023-01-22T18:37:24.260Z,8.90
2023-01-22T18:41:26.759Z,8.53
2023-01-22T18:45:28.925Z,8.10
2023-01-22T18:49:31.103Z,7.37
2023-01-22T18:53:33.681Z,7.17
2023-01-22T18:57:35.840Z,6.50
2023-01-22T19:01:38.561Z,7.37
2023-01-22T19:05:40.710Z,9.07
2023-01-22T19:09:42.859Z,10.33
2023-01-22T19:13:45.347Z,9.10
2023-01-22T19:17:47.464Z,6.10
2023-01-22T19:21:51.755Z,7.57
2023-01-22T19:25:53.923Z,6.67
2023-01-22T19:29:56.082Z,5.43
2023-01-22T19:33:59.169Z,8.07
2023-01-22T19:38:01.310Z,7.73
2023-01-22T19:42:03.898Z,6.00
2023-01-22T19:46:07.499Z,7.60
2023-01-22T19:50:09.965Z,11.70
2023-01-22T19:54:12.468Z,6.83
2023-01-22T19:58:14.584Z,6.70
2023-01-22T20:02:18.037Z,6.40
2023-01-22T20:06:22.251Z,5.90
2023-01-22T20:10:24.596Z,8.00
2023-01-22T20:14:29.149Z,8.70
2023-01-22T20:18:31.451Z,6.83
2023-01-22T20:22:33.639Z,5.77
2023-01-22T20:26:35.965Z,6.77
2023-01-22T20:30:38.183Z,6.40
2023-01-22T20:34:40.430Z,8.00
2023-01-22T20:38:43.337Z,8.53
2023-01-22T20:42:45.484Z,8.13
2023-01-22T20:46:47.622Z,10.60
2023-01-22T20:50:49.943Z,7.57
2023-01-22T20:55:01.523Z,6.67
2023-01-22T20:59:05.790Z,6.30
2023-01-22T21:03:07.930Z,6.10
2023-01-22T21:07:10.059Z,7.43
2023-01-22T21:11:13.492Z,7.93
2023-01-22T21:15:15.624Z,7.90
2023-01-22T21:19:21.526Z,7.27
2023-01-22T21:23:23.667Z,24.50
2023-01-22T21:27:25.785Z,6.43
2023-01-22T21:31:28.114Z,7.33
2023-01-22T21:35:30.307Z,7.27
2023-01-22T21:39:32.479Z,10.03
2023-01-22T21:43:34.831Z,8.13
2023-01-22T21:47:36.957Z,8.30
2023-01-22T21:51:39.123Z,8.97
2023-01-22T21:55:49.602Z,9.93
2023-01-22T21:59:51.810Z,6.87
2023-01-22T22:03:54.009Z,8.80
2023-01-22T22:07:56.156Z,10.53
2023-01-22T22:11:59.516Z,7.87
2023-01-22T22:16:02.400Z,9.20
2023-01-22T22:20:05.193Z,9.93
2023-01-22T22:24:07.824Z,7.97
2023-01-22T22:28:09.959Z,8.90
2023-01-22T22:32:12.168Z,9.47
2023-01-22T22:36:15.230Z,8.73
2023-01-22T22:40:17.667Z,9.43
2023-01-22T22:44:19.979Z,7.23
2023-01-22T22:48:22.194Z,8.10
2023-01-22T22:52:24.319Z,8.77
2023-01-22T22:56:27.183Z,8.83
2023-01-22T23:00:29.316Z,8.43
2023-01-22T23:04:31.476Z,11.83
2023-01-22T23:08:33.602Z,9.13
2023-01-22T23:12:35.763Z,7.37
2023-01-22T23:16:39.313Z,7.47
2023-01-22T23:20:41.470Z,12.33
2023-01-22T23:24:43.669Z,8.10
2023-01-22T23:28:46.472Z,9.80
2023-01-22T23:32:48.660Z,11.87
2023-01-22T23:36:51.010Z,12.13
2023-01-22T23:40:56.822Z,10.97
2023-01-22T23:44:58.955Z,8.03
2023-01-22T23:49:01.137Z,10.43
2023-01-22T23:53:03.271Z,10.63
2023-01-22T23:57:05.402Z,9.57
